Kenmare, North Dakota
Current Conditions -  °F | °C
As of 12:35 PM on Sunday 23 Nov 2014 (Local Time) from K08D Reporting Station
Light Snow Light Snow  
Wind Chill: -1°   Ceiling: Unl
Heat Index: 16°   Visibility: 5mi
Dew Point: 12°   Wind: 18mph
Humidity: 86%   Direction: 320°NW
Pressure: 29.6"   Gusts: 31mph
Location:  48.67°N, 102.08°W
Report Text: K08D 231835Z AUTO 32016G27KT 5SM -SN FEW023 SCT040 M09/M11 A2960 RMK AO2 P0006
Loading
Personal Weather Stations






























Interactive Weather Map New forecast layout! Learn more

10-Day Weather Forecast

Advertisements
Track Severe Weather on mobile